sensor_id;sensor_type;location;lat;lon;timestamp;pressure;altitude;pressure_sealevel;temperature;humidity
16777;BME280;8505;49.456;8.164;2023-01-31T00:01:30;100730.88;;;3.85;81.38
16777;BME280;8505;49.456;8.164;2023-01-31T00:04:02;100726.56;;;3.72;82.08
16777;BME280;8505;49.456;8.164;2023-01-31T00:06:31;100732.59;;;3.47;82.56
16777;BME280;8505;49.456;8.164;2023-01-31T00:09:00;100733.78;;;3.55;82.38
16777;BME280;8505;49.456;8.164;2023-01-31T00:11:29;100731.25;;;3.54;81.97
16777;BME280;8505;49.456;8.164;2023-01-31T00:13:57;100728.09;;;3.49;82.47
16777;BME280;8505;49.456;8.164;2023-01-31T00:16:25;100740.44;;;3.47;82.44
16777;BME280;8505;49.456;8.164;2023-01-31T00:18:53;100742.53;;;3.42;82.78
16777;BME280;8505;49.456;8.164;2023-01-31T00:21:23;100747.44;;;3.34;82.57
16777;BME280;8505;49.456;8.164;2023-01-31T00:23:52;100746.72;;;3.32;82.28
16777;BME280;8505;49.456;8.164;2023-01-31T00:26:22;100746.72;;;3.32;82.26
16777;BME280;8505;49.456;8.164;2023-01-31T00:28:51;100747.69;;;3.16;82.81
16777;BME280;8505;49.456;8.164;2023-01-31T00:31:20;100740.28;;;3.23;82.17
16777;BME280;8505;49.456;8.164;2023-01-31T00:33:50;100729.50;;;3.28;82.65
16777;BME280;8505;49.456;8.164;2023-01-31T00:36:19;100735.41;;;3.04;83.04
16777;BME280;8505;49.456;8.164;2023-01-31T00:38:49;100735.50;;;3.03;83.42
16777;BME280;8505;49.456;8.164;2023-01-31T00:41:17;100726.03;;;2.88;83.95
16777;BME280;8505;49.456;8.164;2023-01-31T00:43:45;100720.81;;;2.88;84.57
16777;BME280;8505;49.456;8.164;2023-01-31T00:46:12;100722.75;;;2.84;83.78
16777;BME280;8505;49.456;8.164;2023-01-31T00:48:40;100726.66;;;2.91;83.77
16777;BME280;8505;49.456;8.164;2023-01-31T00:51:08;100724.72;;;2.95;83.74
16777;BME280;8505;49.456;8.164;2023-01-31T00:53:35;100728.50;;;2.76;84.71
16777;BME280;8505;49.456;8.164;2023-01-31T00:56:07;100727.66;;;2.76;84.81
16777;BME280;8505;49.456;8.164;2023-01-31T00:58:35;100736.22;;;2.78;85.21
16777;BME280;8505;49.456;8.164;2023-01-31T01:01:06;100730.81;;;2.81;85.21
16777;BME280;8505;49.456;8.164;2023-01-31T01:03:35;100732.69;;;2.79;85.38
16777;BME280;8505;49.456;8.164;2023-01-31T01:06:03;100732.03;;;2.75;85.51
16777;BME280;8505;49.456;8.164;2023-01-31T01:08:31;100737.91;;;2.79;85.38
16777;BME280;8505;49.456;8.164;2023-01-31T01:11:05;100735.41;;;2.77;85.43
16777;BME280;8505;49.456;8.164;2023-01-31T01:13:33;100733.34;;;2.82;84.87
16777;BME280;8505;49.456;8.164;2023-01-31T01:16:04;100721.69;;;2.74;85.84
16777;BME280;8505;49.456;8.164;2023-01-31T01:18:32;100721.38;;;2.78;85.70
16777;BME280;8505;49.456;8.164;2023-01-31T01:21:09;100726.34;;;2.83;85.43
16777;BME280;8505;49.456;8.164;2023-01-31T01:23:37;100728.94;;;2.83;85.62
16777;BME280;8505;49.456;8.164;2023-01-31T01:26:12;100731.75;;;2.80;84.92
16777;BME280;8505;49.456;8.164;2023-01-31T01:28:40;100741.91;;;2.84;85.40
16777;BME280;8505;49.456;8.164;2023-01-31T01:31:10;100738.28;;;2.87;85.03
16777;BME280;8505;49.456;8.164;2023-01-31T01:33:38;100743.81;;;2.82;84.98
16777;BME280;8505;49.456;8.164;2023-01-31T01:36:07;100733.22;;;2.84;85.31
16777;BME280;8505;49.456;8.164;2023-01-31T01:38:37;100742.34;;;2.91;84.59
16777;BME280;8505;49.456;8.164;2023-01-31T01:41:06;100740.88;;;2.87;85.02
16777;BME280;8505;49.456;8.164;2023-01-31T01:43:39;100745.50;;;2.83;85.14
16777;BME280;8505;49.456;8.164;2023-01-31T01:46:08;100745.38;;;2.85;84.74
16777;BME280;8505;49.456;8.164;2023-01-31T01:48:37;100752.69;;;2.66;85.57
16777;BME280;8505;49.456;8.164;2023-01-31T01:51:06;100756.06;;;2.68;85.54
16777;BME280;8505;49.456;8.164;2023-01-31T01:53:38;100753.44;;;2.68;85.37
16777;BME280;8505;49.456;8.164;2023-01-31T01:56:10;100752.41;;;2.70;85.04
16777;BME280;8505;49.456;8.164;2023-01-31T01:58:43;100752.69;;;2.66;84.97
16777;BME280;8505;49.456;8.164;2023-01-31T02:01:12;100761.50;;;2.65;85.42
16777;BME280;8505;49.456;8.164;2023-01-31T02:03:43;100758.22;;;2.61;85.35
16777;BME280;8505;49.456;8.164;2023-01-31T02:06:11;100765.41;;;2.58;84.91
16777;BME280;8505;49.456;8.164;2023-01-31T02:08:41;100769.50;;;2.62;84.81
16777;BME280;8505;49.456;8.164;2023-01-31T02:11:15;100776.44;;;2.63;84.89
16777;BME280;8505;49.456;8.164;2023-01-31T02:13:46;100780.19;;;2.59;85.15
16777;BME280;8505;49.456;8.164;2023-01-31T02:16:15;100783.72;;;2.58;85.31
16777;BME280;8505;49.456;8.164;2023-01-31T02:18:44;100783.88;;;2.69;84.60
16777;BME280;8505;49.456;8.164;2023-01-31T02:21:48;100781.28;;;2.55;84.77
16777;BME280;8505;49.456;8.164;2023-01-31T02:30:37;100773.19;;;2.59;85.19
16777;BME280;8505;49.456;8.164;2023-01-31T02:33:19;100774.44;;;2.66;85.13
16777;BME280;8505;49.456;8.164;2023-01-31T02:35:57;100769.34;;;2.65;84.83
16777;BME280;8505;49.456;8.164;2023-01-31T02:38:40;100762.91;;;2.42;85.17
16777;BME280;8505;49.456;8.164;2023-01-31T02:41:16;100753.28;;;2.57;84.99
16777;BME280;8505;49.456;8.164;2023-01-31T02:43:52;100752.72;;;2.37;85.15
16777;BME280;8505;49.456;8.164;2023-01-31T02:46:40;100761.03;;;2.58;84.83
16777;BME280;8505;49.456;8.164;2023-01-31T02:49:14;100759.66;;;2.53;85.31
16777;BME280;8505;49.456;8.164;2023-01-31T02:52:10;100756.97;;;2.67;84.42
16777;BME280;8505;49.456;8.164;2023-01-31T02:54:53;100753.75;;;2.35;85.73
16777;BME280;8505;49.456;8.164;2023-01-31T02:57:42;100751.50;;;2.43;84.93
16777;BME280;8505;49.456;8.164;2023-01-31T03:00:11;100747.41;;;2.39;85.86
16777;BME280;8505;49.456;8.164;2023-01-31T03:02:39;100743.84;;;2.54;85.37
16777;BME280;8505;49.456;8.164;2023-01-31T03:05:13;100750.66;;;2.42;85.62
16777;BME280;8505;49.456;8.164;2023-01-31T03:07:43;100751.13;;;2.35;85.91
16777;BME280;8505;49.456;8.164;2023-01-31T03:10:21;100763.94;;;2.25;86.89
16777;BME280;8505;49.456;8.164;2023-01-31T03:13:01;100754.88;;;2.31;86.57
16777;BME280;8505;49.456;8.164;2023-01-31T03:15:40;100757.97;;;2.09;87.15
16777;BME280;8505;49.456;8.164;2023-01-31T03:18:29;100751.41;;;2.16;87.29
16777;BME280;8505;49.456;8.164;2023-01-31T03:21:05;100756.75;;;2.15;87.18
16777;BME280;8505;49.456;8.164;2023-01-31T03:23:37;100756.66;;;2.30;86.56
16777;BME280;8505;49.456;8.164;2023-01-31T03:26:07;100758.78;;;2.24;86.71
16777;BME280;8505;49.456;8.164;2023-01-31T03:28:37;100762.09;;;2.27;86.38
16777;BME280;8505;49.456;8.164;2023-01-31T03:31:12;100760.19;;;2.29;86.51
16777;BME280;8505;49.456;8.164;2023-01-31T03:33:44;100758.53;;;2.14;86.40
16777;BME280;8505;49.456;8.164;2023-01-31T03:36:21;100760.75;;;2.06;86.81
16777;BME280;8505;49.456;8.164;2023-01-31T03:38:57;100765.53;;;2.14;86.29
16777;BME280;8505;49.456;8.164;2023-01-31T03:41:36;100766.44;;;2.13;86.98
16777;BME280;8505;49.456;8.164;2023-01-31T03:44:11;100771.38;;;2.17;86.58
16777;BME280;8505;49.456;8.164;2023-01-31T03:46:43;100768.13;;;2.14;86.61
16777;BME280;8505;49.456;8.164;2023-01-31T03:49:14;100777.81;;;2.12;86.72
16777;BME280;8505;49.456;8.164;2023-01-31T03:51:47;100780.16;;;2.16;86.48
16777;BME280;8505;49.456;8.164;2023-01-31T03:54:21;100777.91;;;1.96;86.75
16777;BME280;8505;49.456;8.164;2023-01-31T03:56:53;100782.84;;;2.00;87.00
16777;BME280;8505;49.456;8.164;2023-01-31T03:59:26;100788.63;;;2.06;86.56
16777;BME280;8505;49.456;8.164;2023-01-31T04:01:57;100793.03;;;2.05;86.87
16777;BME280;8505;49.456;8.164;2023-01-31T04:04:28;100797.75;;;1.98;86.88
16777;BME280;8505;49.456;8.164;2023-01-31T04:07:00;100802.81;;;2.01;86.35
16777;BME280;8505;49.456;8.164;2023-01-31T04:09:28;100795.63;;;2.05;86.15
16777;BME280;8505;49.456;8.164;2023-01-31T04:11:58;100786.38;;;1.99;85.98
16777;BME280;8505;49.456;8.164;2023-01-31T04:14:26;100787.59;;;1.94;86.31
16777;BME280;8505;49.456;8.164;2023-01-31T04:16:54;100789.47;;;2.06;86.05
16777;BME280;8505;49.456;8.164;2023-01-31T04:19:21;100795.72;;;1.89;86.79
16777;BME280;8505;49.456;8.164;2023-01-31T04:21:49;100797.75;;;1.98;86.63
16777;BME280;8505;49.456;8.164;2023-01-31T04:24:18;100785.91;;;1.93;86.76
16777;BME280;8505;49.456;8.164;2023-01-31T04:26:45;100797.75;;;1.98;86.31
16777;BME280;8505;49.456;8.164;2023-01-31T04:29:13;100789.94;;;1.98;86.04
16777;BME280;8505;49.456;8.164;2023-01-31T04:31:41;100780.72;;;2.07;86.16
16777;BME280;8505;49.456;8.164;2023-01-31T04:34:09;100781.00;;;2.02;86.19
16777;BME280;8505;49.456;8.164;2023-01-31T04:36:37;100787.69;;;1.92;86.51
16777;BME280;8505;49.456;8.164;2023-01-31T04:39:05;100789.00;;;1.99;85.97
16777;BME280;8505;49.456;8.164;2023-01-31T04:41:34;100785.00;;;1.94;86.74
16777;BME280;8505;49.456;8.164;2023-01-31T04:44:01;100780.22;;;1.86;86.76
16777;BME280;8505;49.456;8.164;2023-01-31T04:46:29;100771.41;;;1.73;86.75
16777;BME280;8505;49.456;8.164;2023-01-31T04:48:57;100768.00;;;1.73;87.22
16777;BME280;8505;49.456;8.164;2023-01-31T04:51:25;100760.41;;;1.68;87.43
16777;BME280;8505;49.456;8.164;2023-01-31T04:53:52;100765.97;;;1.62;87.36
16777;BME280;8505;49.456;8.164;2023-01-31T04:56:20;100762.19;;;1.68;87.30
16777;BME280;8505;49.456;8.164;2023-01-31T04:58:49;100766.56;;;1.67;87.63
16777;BME280;8505;49.456;8.164;2023-01-31T05:01:17;100768.06;;;1.71;87.42
16777;BME280;8505;49.456;8.164;2023-01-31T05:03:44;100768.78;;;1.59;87.76
16777;BME280;8505;49.456;8.164;2023-01-31T05:06:12;100770.63;;;1.57;87.78
16777;BME280;8505;49.456;8.164;2023-01-31T05:08:40;100762.25;;;1.52;87.63
16777;BME280;8505;49.456;8.164;2023-01-31T05:11:08;100764.00;;;1.51;87.51
16777;BME280;8505;49.456;8.164;2023-01-31T05:13:36;100751.88;;;1.50;87.69
16777;BME280;8505;49.456;8.164;2023-01-31T05:16:07;100750.75;;;1.54;87.63
16777;BME280;8505;49.456;8.164;2023-01-31T05:18:36;100750.75;;;1.40;88.06
16777;BME280;8505;49.456;8.164;2023-01-31T05:21:05;100742.06;;;1.40;88.28
16777;BME280;8505;49.456;8.164;2023-01-31T05:23:33;100745.88;;;1.18;88.37
16777;BME280;8505;49.456;8.164;2023-01-31T05:26:02;100744.47;;;1.29;88.64
16777;BME280;8505;49.456;8.164;2023-01-31T05:28:30;100742.44;;;1.34;88.57
16777;BME280;8505;49.456;8.164;2023-01-31T05:31:01;100747.41;;;1.23;88.68
16777;BME280;8505;49.456;8.164;2023-01-31T05:33:31;100751.38;;;1.30;88.57
16777;BME280;8505;49.456;8.164;2023-01-31T05:35:59;100743.78;;;1.25;88.33
16777;BME280;8505;49.456;8.164;2023-01-31T05:38:26;100740.50;;;1.21;88.19
16777;BME280;8505;49.456;8.164;2023-01-31T05:40:54;100744.31;;;1.16;88.62
16777;BME280;8505;49.456;8.164;2023-01-31T05:43:22;100746.81;;;1.17;88.41
16777;BME280;8505;49.456;8.164;2023-01-31T05:45:49;100748.97;;;1.11;88.72
16777;BME280;8505;49.456;8.164;2023-01-31T05:48:17;100751.81;;;1.06;88.72
16777;BME280;8505;49.456;8.164;2023-01-31T05:50:47;100748.13;;;1.10;89.14
16777;BME280;8505;49.456;8.164;2023-01-31T05:53:15;100746.50;;;1.08;89.14
16777;BME280;8505;49.456;8.164;2023-01-31T05:55:44;100743.81;;;1.09;89.03
16777;BME280;8505;49.456;8.164;2023-01-31T05:58:11;100747.78;;;1.01;89.11
16777;BME280;8505;49.456;8.164;2023-01-31T06:00:39;100744.75;;;0.93;88.97
16777;BME280;8505;49.456;8.164;2023-01-31T06:03:07;100745.34;;;0.98;88.91
16777;BME280;8505;49.456;8.164;2023-01-31T06:05:34;100746.28;;;0.97;89.17
16777;BME280;8505;49.456;8.164;2023-01-31T06:08:18;100749.56;;;0.85;89.48
16777;BME280;8505;49.456;8.164;2023-01-31T06:10:45;100756.13;;;0.92;89.01
16777;BME280;8505;49.456;8.164;2023-01-31T06:13:13;100754.59;;;0.88;89.31
16777;BME280;8505;49.456;8.164;2023-01-31T06:15:56;100768.31;;;0.91;89.62
16777;BME280;8505;49.456;8.164;2023-01-31T06:18:25;100764.34;;;0.84;89.15
16777;BME280;8505;49.456;8.164;2023-01-31T06:20:52;100766.97;;;0.84;89.31
16777;BME280;8505;49.456;8.164;2023-01-31T06:23:21;100760.06;;;0.83;89.58
16777;BME280;8505;49.456;8.164;2023-01-31T06:25:49;100755.84;;;0.80;89.74
16777;BME280;8505;49.456;8.164;2023-01-31T06:28:18;100751.59;;;0.79;89.61
16777;BME280;8505;49.456;8.164;2023-01-31T06:30:45;100753.09;;;0.84;89.60
16777;BME280;8505;49.456;8.164;2023-01-31T06:33:14;100766.78;;;0.71;89.78
16777;BME280;8505;49.456;8.164;2023-01-31T06:35:41;100765.88;;;0.72;89.54
16777;BME280;8505;49.456;8.164;2023-01-31T06:38:09;100760.72;;;0.87;89.33
16777;BME280;8505;49.456;8.164;2023-01-31T06:40:40;100750.41;;;0.85;89.07
16777;BME280;8505;49.456;8.164;2023-01-31T06:43:07;100756.47;;;0.86;89.09
16777;BME280;8505;49.456;8.164;2023-01-31T06:45:35;100751.59;;;0.79;89.45
16777;BME280;8505;49.456;8.164;2023-01-31T06:48:03;100751.06;;;0.89;89.13
16777;BME280;8505;49.456;8.164;2023-01-31T06:50:31;100742.41;;;0.88;89.10
16777;BME280;8505;49.456;8.164;2023-01-31T06:52:58;100749.88;;;1.10;88.43
16777;BME280;8505;49.456;8.164;2023-01-31T06:55:26;100759.78;;;1.19;87.77
16777;BME280;8505;49.456;8.164;2023-01-31T06:57:55;100764.66;;;1.25;87.25
16777;BME280;8505;49.456;8.164;2023-01-31T07:00:23;100761.13;;;1.26;87.60
16777;BME280;8505;49.456;8.164;2023-01-31T07:02:52;100761.69;;;1.31;87.72
16777;BME280;8505;49.456;8.164;2023-01-31T07:05:21;100763.22;;;1.35;87.56
16777;BME280;8505;49.456;8.164;2023-01-31T07:07:49;100761.34;;;1.37;87.51
16777;BME280;8505;49.456;8.164;2023-01-31T07:10:17;100751.66;;;1.39;87.10
16777;BME280;8505;49.456;8.164;2023-01-31T07:12:45;100759.41;;;1.41;87.07
16777;BME280;8505;49.456;8.164;2023-01-31T07:15:14;100761.81;;;1.44;87.32
16777;BME280;8505;49.456;8.164;2023-01-31T07:17:41;100770.16;;;1.50;86.75
16777;BME280;8505;49.456;8.164;2023-01-31T07:20:10;100775.50;;;1.63;86.80
16777;BME280;8505;49.456;8.164;2023-01-31T07:22:38;100777.81;;;1.53;86.93
16777;BME280;8505;49.456;8.164;2023-01-31T07:25:06;100778.59;;;1.70;86.22
16777;BME280;8505;49.456;8.164;2023-01-31T07:27:34;100788.97;;;1.71;86.53
16777;BME280;8505;49.456;8.164;2023-01-31T07:30:02;100781.69;;;1.76;86.59
16777;BME280;8505;49.456;8.164;2023-01-31T07:32:31;100786.63;;;1.81;86.47
16777;BME280;8505;49.456;8.164;2023-01-31T07:34:59;100791.97;;;1.93;86.25
16777;BME280;8505;49.456;8.164;2023-01-31T07:37:27;100784.72;;;1.98;85.43
16777;BME280;8505;49.456;8.164;2023-01-31T07:39:55;100785.56;;;2.13;85.50
16777;BME280;8505;49.456;8.164;2023-01-31T07:42:22;100790.91;;;2.26;84.52
16777;BME280;8505;49.456;8.164;2023-01-31T07:44:50;100778.09;;;2.35;84.05
16777;BME280;8505;49.456;8.164;2023-01-31T07:47:18;100782.50;;;2.49;83.53
16777;BME280;8505;49.456;8.164;2023-01-31T07:49:47;100784.81;;;2.54;83.60
16777;BME280;8505;49.456;8.164;2023-01-31T07:52:15;100780.25;;;2.57;83.36
16777;BME280;8505;49.456;8.164;2023-01-31T07:54:43;100783.88;;;2.69;82.73
16777;BME280;8505;49.456;8.164;2023-01-31T07:57:11;100774.81;;;2.74;83.10
16777;BME280;8505;49.456;8.164;2023-01-31T07:59:39;100787.44;;;2.68;83.42
16777;BME280;8505;49.456;8.164;2023-01-31T08:02:09;100786.50;;;2.69;83.48
16777;BME280;8505;49.456;8.164;2023-01-31T08:04:57;100787.25;;;2.71;83.45
16777;BME280;8505;49.456;8.164;2023-01-31T08:07:25;100791.50;;;2.86;82.89
16777;BME280;8505;49.456;8.164;2023-01-31T08:09:53;100784.59;;;2.85;83.29
16777;BME280;8505;49.456;8.164;2023-01-31T08:12:21;100775.44;;;2.92;82.70
16777;BME280;8505;49.456;8.164;2023-01-31T08:14:48;100781.22;;;2.97;83.09
16777;BME280;8505;49.456;8.164;2023-01-31T08:17:16;100780.56;;;2.94;83.30
16777;BME280;8505;49.456;8.164;2023-01-31T08:19:43;100777.22;;;3.18;82.75
16777;BME280;8505;49.456;8.164;2023-01-31T08:22:12;100788.19;;;3.38;81.75
16777;BME280;8505;49.456;8.164;2023-01-31T08:24:40;100776.44;;;3.31;82.49
16777;BME280;8505;49.456;8.164;2023-01-31T08:27:08;100771.59;;;3.51;82.09
16777;BME280;8505;49.456;8.164;2023-01-31T08:29:35;100774.84;;;3.55;81.96
16777;BME280;8505;49.456;8.164;2023-01-31T08:32:03;100767.97;;;3.40;81.79
16777;BME280;8505;49.456;8.164;2023-01-31T08:34:31;100777.72;;;3.38;81.92
16777;BME280;8505;49.456;8.164;2023-01-31T08:36:58;100772.09;;;3.44;81.99
16777;BME280;8505;49.456;8.164;2023-01-31T08:39:28;100784.06;;;3.34;81.92
16777;BME280;8505;49.456;8.164;2023-01-31T08:41:55;100788.78;;;3.29;82.18
16777;BME280;8505;49.456;8.164;2023-01-31T08:44:23;100789.25;;;3.48;82.51
16777;BME280;8505;49.456;8.164;2023-01-31T08:46:50;100785.25;;;3.69;81.97
16777;BME280;8505;49.456;8.164;2023-01-31T08:49:18;100777.16;;;3.72;80.71
16777;BME280;8505;49.456;8.164;2023-01-31T08:51:46;100774.03;;;3.67;81.55
16777;BME280;8505;49.456;8.164;2023-01-31T08:54:13;100773.94;;;3.42;82.04
16777;BME280;8505;49.456;8.164;2023-01-31T08:56:42;100780.25;;;3.39;82.43
16777;BME280;8505;49.456;8.164;2023-01-31T08:59:10;100788.00;;;3.53;81.81
16777;BME280;8505;49.456;8.164;2023-01-31T09:01:38;100780.66;;;3.46;82.25
16777;BME280;8505;49.456;8.164;2023-01-31T09:04:07;100777.50;;;3.41;82.56
16777;BME280;8505;49.456;8.164;2023-01-31T09:06:35;100781.91;;;3.40;81.97
16777;BME280;8505;49.456;8.164;2023-01-31T09:09:03;100779.28;;;3.40;82.06
16777;BME280;8505;49.456;8.164;2023-01-31T09:11:30;100789.78;;;3.53;82.25
16777;BME280;8505;49.456;8.164;2023-01-31T09:14:00;100777.53;;;3.53;82.14
16777;BME280;8505;49.456;8.164;2023-01-31T09:16:28;100764.25;;;3.56;82.34
16777;BME280;8505;49.456;8.164;2023-01-31T09:18:55;100770.38;;;3.70;81.43
16777;BME280;8505;49.456;8.164;2023-01-31T09:21:23;100792.72;;;3.88;81.17
16777;BME280;8505;49.456;8.164;2023-01-31T09:23:55;100775.84;;;4.04;81.06
16777;BME280;8505;49.456;8.164;2023-01-31T09:26:23;100784.56;;;4.18;79.91
16777;BME280;8505;49.456;8.164;2023-01-31T09:28:50;100772.72;;;4.12;79.74
16777;BME280;8505;49.456;8.164;2023-01-31T09:31:19;100758.59;;;4.51;78.92
16777;BME280;8505;49.456;8.164;2023-01-31T09:33:47;100760.16;;;4.66;77.75
16777;BME280;8505;49.456;8.164;2023-01-31T09:36:17;100759.03;;;4.94;75.88
16777;BME280;8505;49.456;8.164;2023-01-31T09:38:45;100752.38;;;5.01;75.31
16777;BME280;8505;49.456;8.164;2023-01-31T09:41:18;100743.59;;;5.37;74.97
16777;BME280;8505;49.456;8.164;2023-01-31T09:43:51;100739.22;;;5.73;74.24
16777;BME280;8505;49.456;8.164;2023-01-31T09:46:24;100743.69;;;5.59;73.15
16777;BME280;8505;49.456;8.164;2023-01-31T09:48:56;100750.78;;;5.70;73.73
16777;BME280;8505;49.456;8.164;2023-01-31T09:51:26;100754.34;;;5.69;72.46
16777;BME280;8505;49.456;8.164;2023-01-31T09:53:54;100752.22;;;5.15;73.99
16777;BME280;8505;49.456;8.164;2023-01-31T09:56:29;100754.03;;;5.15;74.71
16777;BME280;8505;49.456;8.164;2023-01-31T09:59:03;100751.72;;;5.34;73.66
16777;BME280;8505;49.456;8.164;2023-01-31T10:01:39;100760.34;;;5.71;73.18
16777;BME280;8505;49.456;8.164;2023-01-31T10:04:22;100741.22;;;5.34;73.96
16777;BME280;8505;49.456;8.164;2023-01-31T10:06:57;100742.56;;;5.16;74.78
16777;BME280;8505;49.456;8.164;2023-01-31T10:09:29;100732.63;;;5.08;75.42
16777;BME280;8505;49.456;8.164;2023-01-31T10:12:06;100761.25;;;5.24;74.85
16777;BME280;8505;49.456;8.164;2023-01-31T10:14:42;100756.19;;;5.21;74.37
16777;BME280;8505;49.456;8.164;2023-01-31T10:17:16;100764.72;;;5.24;74.58
16777;BME280;8505;49.456;8.164;2023-01-31T10:19:50;100749.16;;;4.98;75.02
16777;BME280;8505;49.456;8.164;2023-01-31T10:22:22;100753.47;;;4.99;75.15
16777;BME280;8505;49.456;8.164;2023-01-31T10:24:56;100735.97;;;4.86;75.76
16777;BME280;8505;49.456;8.164;2023-01-31T10:27:36;100760.53;;;4.85;75.68
16777;BME280;8505;49.456;8.164;2023-01-31T10:30:14;100747.41;;;4.85;76.04
16777;BME280;8505;49.456;8.164;2023-01-31T10:32:45;100731.69;;;4.85;76.82
16777;BME280;8505;49.456;8.164;2023-01-31T10:35:19;100732.50;;;4.62;77.01
16777;BME280;8505;49.456;8.164;2023-01-31T10:37:53;100728.38;;;4.58;77.25
16777;BME280;8505;49.456;8.164;2023-01-31T10:40:25;100718.19;;;4.66;77.17
16777;BME280;8505;49.456;8.164;2023-01-31T10:43:01;100710.88;;;4.59;77.44
16777;BME280;8505;49.456;8.164;2023-01-31T10:45:31;100698.69;;;4.58;77.36
16777;BME280;8505;49.456;8.164;2023-01-31T10:48:12;100711.28;;;4.65;77.31
16777;BME280;8505;49.456;8.164;2023-01-31T10:50:48;100721.75;;;4.65;77.64
16777;BME280;8505;49.456;8.164;2023-01-31T10:53:44;100723.38;;;4.55;76.88
16777;BME280;8505;49.456;8.164;2023-01-31T10:56:20;100726.28;;;4.63;77.90
16777;BME280;8505;49.456;8.164;2023-01-31T10:58:53;100729.88;;;4.62;77.29
16777;BME280;8505;49.456;8.164;2023-01-31T11:01:22;100722.91;;;4.74;76.88
16777;BME280;8505;49.456;8.164;2023-01-31T11:03:53;100725.13;;;4.67;76.63
16777;BME280;8505;49.456;8.164;2023-01-31T11:06:22;100706.91;;;4.53;77.15
16777;BME280;8505;49.456;8.164;2023-01-31T11:08:52;100706.69;;;4.56;77.85
16777;BME280;8505;49.456;8.164;2023-01-31T11:11:23;100708.44;;;4.68;77.63
16777;BME280;8505;49.456;8.164;2023-01-31T11:13:56;100708.31;;;4.70;76.73
16777;BME280;8505;49.456;8.164;2023-01-31T11:16:27;100694.94;;;4.85;76.20
16777;BME280;8505;49.456;8.164;2023-01-31T11:18:58;100675.88;;;4.95;76.44
16777;BME280;8505;49.456;8.164;2023-01-31T11:21:30;100684.47;;;5.20;75.62
16777;BME280;8505;49.456;8.164;2023-01-31T11:24:01;100681.63;;;5.23;74.73
16777;BME280;8505;49.456;8.164;2023-01-31T11:26:32;100662.53;;;5.21;74.88
16777;BME280;8505;49.456;8.164;2023-01-31T11:29:01;100657.63;;;5.17;74.26
16777;BME280;8505;49.456;8.164;2023-01-31T11:31:35;100651.94;;;5.34;73.82
16777;BME280;8505;49.456;8.164;2023-01-31T11:34:17;100655.97;;;5.27;74.42
16777;BME280;8505;49.456;8.164;2023-01-31T11:37:12;100644.88;;;5.23;74.42
16777;BME280;8505;49.456;8.164;2023-01-31T11:39:40;100646.41;;;5.26;74.23
16777;BME280;8505;49.456;8.164;2023-01-31T11:42:12;100649.06;;;5.37;73.80
16777;BME280;8505;49.456;8.164;2023-01-31T11:44:58;100653.81;;;5.32;73.61
16777;BME280;8505;49.456;8.164;2023-01-31T11:47:31;100647.69;;;5.09;73.86
16777;BME280;8505;49.456;8.164;2023-01-31T11:50:01;100634.66;;;5.54;72.94
16777;BME280;8505;49.456;8.164;2023-01-31T11:52:30;100621.19;;;5.69;72.68
16777;BME280;8505;49.456;8.164;2023-01-31T11:55:00;100620.22;;;5.70;72.10
16777;BME280;8505;49.456;8.164;2023-01-31T11:57:33;100618.53;;;5.47;72.18
16777;BME280;8505;49.456;8.164;2023-01-31T12:00:04;100612.66;;;5.33;72.51
16777;BME280;8505;49.456;8.164;2023-01-31T12:02:35;100595.81;;;5.24;72.62
16777;BME280;8505;49.456;8.164;2023-01-31T12:05:11;100584.94;;;5.17;72.51
16777;BME280;8505;49.456;8.164;2023-01-31T12:07:42;100583.03;;;5.19;72.70
16777;BME280;8505;49.456;8.164;2023-01-31T12:10:29;100577.06;;;5.17;73.30
16777;BME280;8505;49.456;8.164;2023-01-31T12:12:59;100554.50;;;5.15;73.07
16777;BME280;8505;49.456;8.164;2023-01-31T12:15:51;100542.91;;;5.06;73.95
16777;BME280;8505;49.456;8.164;2023-01-31T12:18:44;100540.75;;;5.00;74.54
16777;BME280;8505;49.456;8.164;2023-01-31T12:21:28;100529.16;;;4.92;74.79
16777;BME280;8505;49.456;8.164;2023-01-31T12:24:06;100532.28;;;4.97;74.95
16777;BME280;8505;49.456;8.164;2023-01-31T12:26:44;100513.53;;;5.01;75.07
16777;BME280;8505;49.456;8.164;2023-01-31T12:29:40;100515.22;;;5.13;74.87
16777;BME280;8505;49.456;8.164;2023-01-31T12:32:35;100509.28;;;5.11;74.87
16777;BME280;8505;49.456;8.164;2023-01-31T12:35:30;100527.31;;;5.27;74.28
16777;BME280;8505;49.456;8.164;2023-01-31T12:38:08;100521.00;;;5.18;74.50
16777;BME280;8505;49.456;8.164;2023-01-31T12:40:47;100518.59;;;5.26;74.72
16777;BME280;8505;49.456;8.164;2023-01-31T12:43:29;100508.69;;;5.19;74.77
16777;BME280;8505;49.456;8.164;2023-01-31T12:46:07;100530.16;;;5.13;75.05
16777;BME280;8505;49.456;8.164;2023-01-31T12:49:19;100533.75;;;5.23;74.86
16777;BME280;8505;49.456;8.164;2023-01-31T12:51:56;100549.03;;;5.29;75.43
16777;BME280;8505;49.456;8.164;2023-01-31T12:54:40;100524.31;;;5.20;75.59
16777;BME280;8505;49.456;8.164;2023-01-31T12:57:21;100531.38;;;5.42;74.93
16777;BME280;8505;49.456;8.164;2023-01-31T12:59:55;100519.09;;;5.43;74.62
16777;BME280;8505;49.456;8.164;2023-01-31T13:02:38;100539.22;;;5.20;75.84
16777;BME280;8505;49.456;8.164;2023-01-31T13:05:15;100511.56;;;5.16;76.10
16777;BME280;8505;49.456;8.164;2023-01-31T13:07:51;100513.44;;;5.14;76.29
16777;BME280;8505;49.456;8.164;2023-01-31T13:10:32;100490.78;;;5.13;76.57
16777;BME280;8505;49.456;8.164;2023-01-31T13:13:01;100473.59;;;5.09;76.74
16777;BME280;8505;49.456;8.164;2023-01-31T13:15:37;100463.94;;;5.20;75.54
16777;BME280;8505;49.456;8.164;2023-01-31T13:18:08;100484.56;;;5.25;76.11
16777;BME280;8505;49.456;8.164;2023-01-31T13:20:40;100478.84;;;5.20;76.17
16777;BME280;8505;49.456;8.164;2023-01-31T13:23:12;100477.69;;;5.24;76.04
16777;BME280;8505;49.456;8.164;2023-01-31T13:25:48;100450.66;;;5.44;75.38
16777;BME280;8505;49.456;8.164;2023-01-31T13:28:22;100444.69;;;5.64;74.85
16777;BME280;8505;49.456;8.164;2023-01-31T13:30:54;100446.44;;;5.75;74.41
16777;BME280;8505;49.456;8.164;2023-01-31T13:33:34;100434.06;;;5.66;74.52
16777;BME280;8505;49.456;8.164;2023-01-31T13:36:15;100426.03;;;5.79;74.73
16777;BME280;8505;49.456;8.164;2023-01-31T13:38:44;100430.09;;;5.72;75.03
16777;BME280;8505;49.456;8.164;2023-01-31T13:41:24;100440.59;;;5.72;74.67